sensor_id;sensor_type;location;lat;lon;timestamp;temperature;humidity
20041;DHT22;10181;48.072;9.884;2024-03-29T00:00:53;3.10;99.90
20041;DHT22;10181;48.072;9.884;2024-03-29T00:03:18;3.00;99.90
20041;DHT22;10181;48.072;9.884;2024-03-29T00:05:44;2.90;99.90
20041;DHT22;10181;48.072;9.884;2024-03-29T00:08:10;2.80;99.90
20041;DHT22;10181;48.072;9.884;2024-03-29T00:10:36;2.70;99.90
20041;DHT22;10181;48.072;9.884;2024-03-29T00:13:01;2.80;99.90
20041;DHT22;10181;48.072;9.884;2024-03-29T00:15:27;2.90;99.90
20041;DHT22;10181;48.072;9.884;2024-03-29T00:17:53;3.00;99.90
20041;DHT22;10181;48.072;9.884;2024-03-29T00:20:18;3.10;99.90
20041;DHT22;10181;48.072;9.884;2024-03-29T00:22:46;3.10;99.90
20041;DHT22;10181;48.072;9.884;2024-03-29T00:25:12;3.00;99.90
20041;DHT22;10181;48.072;9.884;2024-03-29T00:27:38;2.90;99.90
20041;DHT22;10181;48.072;9.884;2024-03-29T00:30:04;2.90;99.90
20041;DHT22;10181;48.072;9.884;2024-03-29T00:32:30;2.80;99.90
20041;DHT22;10181;48.072;9.884;2024-03-29T00:34:55;2.70;99.90
20041;DHT22;10181;48.072;9.884;2024-03-29T00:37:23;2.60;99.90
20041;DHT22;10181;48.072;9.884;2024-03-29T00:39:49;2.50;99.90
20041;DHT22;10181;48.072;9.884;2024-03-29T00:42:15;2.50;99.90
20041;DHT22;10181;48.072;9.884;2024-03-29T00:44:42;2.40;99.90
20041;DHT22;10181;48.072;9.884;2024-03-29T00:47:08;2.40;99.90
20041;DHT22;10181;48.072;9.884;2024-03-29T00:49:34;2.30;99.90
20041;DHT22;10181;48.072;9.884;2024-03-29T00:52:01;2.20;99.90
20041;DHT22;10181;48.072;9.884;2024-03-29T00:54:27;2.00;99.90
20041;DHT22;10181;48.072;9.884;2024-03-29T00:56:53;2.00;99.90
20041;DHT22;10181;48.072;9.884;2024-03-29T00:59:19;1.90;99.90
20041;DHT22;10181;48.072;9.884;2024-03-29T01:01:45;2.00;99.90
20041;DHT22;10181;48.072;9.884;2024-03-29T01:04:11;2.00;99.90
20041;DHT22;10181;48.072;9.884;2024-03-29T01:06:37;2.10;99.90
20041;DHT22;10181;48.072;9.884;2024-03-29T01:09:04;2.10;99.90
20041;DHT22;10181;48.072;9.884;2024-03-29T01:11:30;2.20;99.90
20041;DHT22;10181;48.072;9.884;2024-03-29T01:13:56;2.20;99.90
20041;DHT22;10181;48.072;9.884;2024-03-29T01:16:21;2.20;99.90
20041;DHT22;10181;48.072;9.884;2024-03-29T01:18:47;2.20;99.90
20041;DHT22;10181;48.072;9.884;2024-03-29T01:21:13;2.20;99.90
20041;DHT22;10181;48.072;9.884;2024-03-29T01:23:39;2.30;99.90
20041;DHT22;10181;48.072;9.884;2024-03-29T01:26:07;2.30;99.90
20041;DHT22;10181;48.072;9.884;2024-03-29T01:28:33;2.30;99.90
20041;DHT22;10181;48.072;9.884;2024-03-29T01:30:59;2.40;99.90
20041;DHT22;10181;48.072;9.884;2024-03-29T01:33:25;2.40;99.90
20041;DHT22;10181;48.072;9.884;2024-03-29T01:35:51;2.40;99.90
20041;DHT22;10181;48.072;9.884;2024-03-29T01:38:17;2.50;99.90
20041;DHT22;10181;48.072;9.884;2024-03-29T01:40:42;2.50;99.90
20041;DHT22;10181;48.072;9.884;2024-03-29T01:43:08;2.50;99.90
20041;DHT22;10181;48.072;9.884;2024-03-29T01:45:41;2.60;99.90
20041;DHT22;10181;48.072;9.884;2024-03-29T01:48:09;2.60;99.90
20041;DHT22;10181;48.072;9.884;2024-03-29T01:50:36;2.70;99.90
20041;DHT22;10181;48.072;9.884;2024-03-29T01:53:02;2.70;99.90
20041;DHT22;10181;48.072;9.884;2024-03-29T01:55:29;2.70;99.90
20041;DHT22;10181;48.072;9.884;2024-03-29T01:57:55;2.80;99.90
20041;DHT22;10181;48.072;9.884;2024-03-29T02:00:22;2.80;99.90
20041;DHT22;10181;48.072;9.884;2024-03-29T02:02:48;2.90;99.90
20041;DHT22;10181;48.072;9.884;2024-03-29T02:05:14;2.90;99.90
20041;DHT22;10181;48.072;9.884;2024-03-29T02:07:39;2.90;99.90
20041;DHT22;10181;48.072;9.884;2024-03-29T02:10:06;2.80;99.90
20041;DHT22;10181;48.072;9.884;2024-03-29T02:12:33;2.70;99.90
20041;DHT22;10181;48.072;9.884;2024-03-29T02:14:59;2.70;99.90
20041;DHT22;10181;48.072;9.884;2024-03-29T02:17:27;2.60;99.90
20041;DHT22;10181;48.072;9.884;2024-03-29T02:19:53;2.60;99.90
20041;DHT22;10181;48.072;9.884;2024-03-29T02:22:19;2.60;99.90
20041;DHT22;10181;48.072;9.884;2024-03-29T02:24:47;2.50;99.90
20041;DHT22;10181;48.072;9.884;2024-03-29T02:27:13;2.40;99.90
20041;DHT22;10181;48.072;9.884;2024-03-29T02:29:39;2.40;99.90
20041;DHT22;10181;48.072;9.884;2024-03-29T02:32:05;2.40;99.90
20041;DHT22;10181;48.072;9.884;2024-03-29T02:34:30;2.30;99.90
20041;DHT22;10181;48.072;9.884;2024-03-29T02:36:56;2.30;99.90
20041;DHT22;10181;48.072;9.884;2024-03-29T02:39:22;2.20;99.90
20041;DHT22;10181;48.072;9.884;2024-03-29T02:41:48;2.20;99.90
20041;DHT22;10181;48.072;9.884;2024-03-29T02:44:14;2.20;99.90
20041;DHT22;10181;48.072;9.884;2024-03-29T02:46:41;2.20;99.90
20041;DHT22;10181;48.072;9.884;2024-03-29T02:49:07;2.10;99.90
20041;DHT22;10181;48.072;9.884;2024-03-29T02:51:33;2.10;99.90
20041;DHT22;10181;48.072;9.884;2024-03-29T02:53:58;2.00;99.90
20041;DHT22;10181;48.072;9.884;2024-03-29T02:56:24;1.90;99.90
20041;DHT22;10181;48.072;9.884;2024-03-29T02:58:50;1.80;99.90
20041;DHT22;10181;48.072;9.884;2024-03-29T03:01:15;1.80;99.90
20041;DHT22;10181;48.072;9.884;2024-03-29T03:03:41;1.70;99.90
20041;DHT22;10181;48.072;9.884;2024-03-29T03:06:06;1.70;99.90
20041;DHT22;10181;48.072;9.884;2024-03-29T03:08:32;1.70;99.90
20041;DHT22;10181;48.072;9.884;2024-03-29T03:11:16;1.70;99.90
20041;DHT22;10181;48.072;9.884;2024-03-29T03:13:42;1.60;99.90
20041;DHT22;10181;48.072;9.884;2024-03-29T03:16:08;1.50;99.90
20041;DHT22;10181;48.072;9.884;2024-03-29T03:18:33;1.40;99.90
20041;DHT22;10181;48.072;9.884;2024-03-29T03:20:59;1.40;99.90
20041;DHT22;10181;48.072;9.884;2024-03-29T03:23:25;1.30;99.90
20041;DHT22;10181;48.072;9.884;2024-03-29T03:25:58;1.20;99.90
20041;DHT22;10181;48.072;9.884;2024-03-29T03:28:23;1.10;99.90
20041;DHT22;10181;48.072;9.884;2024-03-29T03:30:50;1.10;99.90
20041;DHT22;10181;48.072;9.884;2024-03-29T03:33:16;1.00;99.90
20041;DHT22;10181;48.072;9.884;2024-03-29T03:35:42;1.00;99.90
20041;DHT22;10181;48.072;9.884;2024-03-29T03:38:08;1.00;99.90
20041;DHT22;10181;48.072;9.884;2024-03-29T03:40:34;1.00;99.90
20041;DHT22;10181;48.072;9.884;2024-03-29T03:43:01;1.00;99.90
20041;DHT22;10181;48.072;9.884;2024-03-29T03:45:27;1.00;99.90
20041;DHT22;10181;48.072;9.884;2024-03-29T03:47:52;0.90;99.90
20041;DHT22;10181;48.072;9.884;2024-03-29T03:50:18;0.80;99.90
20041;DHT22;10181;48.072;9.884;2024-03-29T03:52:43;0.70;99.90
20041;DHT22;10181;48.072;9.884;2024-03-29T03:55:09;0.60;99.90
20041;DHT22;10181;48.072;9.884;2024-03-29T03:57:35;0.50;99.90
20041;DHT22;10181;48.072;9.884;2024-03-29T04:00:01;0.50;99.90
20041;DHT22;10181;48.072;9.884;2024-03-29T04:02:28;0.50;99.90
20041;DHT22;10181;48.072;9.884;2024-03-29T04:04:54;0.40;99.90
20041;DHT22;10181;48.072;9.884;2024-03-29T04:07:19;0.40;99.90
20041;DHT22;10181;48.072;9.884;2024-03-29T04:09:45;0.40;99.90
20041;DHT22;10181;48.072;9.884;2024-03-29T04:12:11;0.40;99.90
20041;DHT22;10181;48.072;9.884;2024-03-29T04:14:36;0.40;99.90
20041;DHT22;10181;48.072;9.884;2024-03-29T04:17:02;0.40;99.90
20041;DHT22;10181;48.072;9.884;2024-03-29T04:19:28;0.40;99.90
20041;DHT22;10181;48.072;9.884;2024-03-29T04:21:53;0.40;99.90
20041;DHT22;10181;48.072;9.884;2024-03-29T04:24:19;0.40;99.90
20041;DHT22;10181;48.072;9.884;2024-03-29T04:26:44;0.50;99.90
20041;DHT22;10181;48.072;9.884;2024-03-29T04:29:12;0.50;99.90
20041;DHT22;10181;48.072;9.884;2024-03-29T04:31:38;0.50;99.90
20041;DHT22;10181;48.072;9.884;2024-03-29T04:34:03;0.50;99.90
20041;DHT22;10181;48.072;9.884;2024-03-29T04:36:29;0.60;99.90
20041;DHT22;10181;48.072;9.884;2024-03-29T04:38:54;0.60;99.90
20041;DHT22;10181;48.072;9.884;2024-03-29T04:41:20;0.70;99.90
20041;DHT22;10181;48.072;9.884;2024-03-29T04:43:46;0.70;99.90
20041;DHT22;10181;48.072;9.884;2024-03-29T04:46:13;0.70;99.90
20041;DHT22;10181;48.072;9.884;2024-03-29T04:48:40;0.70;99.90
20041;DHT22;10181;48.072;9.884;2024-03-29T04:51:11;0.70;99.90
20041;DHT22;10181;48.072;9.884;2024-03-29T04:53:37;0.80;99.90
20041;DHT22;10181;48.072;9.884;2024-03-29T04:56:04;0.80;99.90
20041;DHT22;10181;48.072;9.884;2024-03-29T04:58:29;0.80;99.90
20041;DHT22;10181;48.072;9.884;2024-03-29T05:00:55;0.90;99.90
20041;DHT22;10181;48.072;9.884;2024-03-29T05:03:22;0.90;99.90
20041;DHT22;10181;48.072;9.884;2024-03-29T05:05:52;1.00;99.90
20041;DHT22;10181;48.072;9.884;2024-03-29T05:08:19;1.00;99.90
20041;DHT22;10181;48.072;9.884;2024-03-29T05:10:46;1.00;99.90
20041;DHT22;10181;48.072;9.884;2024-03-29T05:13:12;1.00;99.90
20041;DHT22;10181;48.072;9.884;2024-03-29T05:15:38;1.00;99.90
20041;DHT22;10181;48.072;9.884;2024-03-29T05:18:04;0.90;99.90
20041;DHT22;10181;48.072;9.884;2024-03-29T05:20:30;0.80;99.90
20041;DHT22;10181;48.072;9.884;2024-03-29T05:23:00;0.90;99.90
20041;DHT22;10181;48.072;9.884;2024-03-29T05:25:26;0.90;99.90
20041;DHT22;10181;48.072;9.884;2024-03-29T05:27:52;1.00;99.90
20041;DHT22;10181;48.072;9.884;2024-03-29T05:30:18;1.00;99.90
20041;DHT22;10181;48.072;9.884;2024-03-29T05:32:44;1.00;99.90
20041;DHT22;10181;48.072;9.884;2024-03-29T05:35:10;1.00;99.90
20041;DHT22;10181;48.072;9.884;2024-03-29T05:37:36;1.10;99.90
20041;DHT22;10181;48.072;9.884;2024-03-29T05:40:02;1.10;99.90
20041;DHT22;10181;48.072;9.884;2024-03-29T05:42:32;1.20;99.90
20041;DHT22;10181;48.072;9.884;2024-03-29T05:44:59;1.20;99.90
20041;DHT22;10181;48.072;9.884;2024-03-29T05:47:24;1.30;99.90
20041;DHT22;10181;48.072;9.884;2024-03-29T05:49:50;1.40;99.90
20041;DHT22;10181;48.072;9.884;2024-03-29T05:52:16;1.40;99.90
20041;DHT22;10181;48.072;9.884;2024-03-29T05:54:43;1.50;99.90
20041;DHT22;10181;48.072;9.884;2024-03-29T05:57:08;1.50;99.90
20041;DHT22;10181;48.072;9.884;2024-03-29T05:59:35;1.50;99.90
20041;DHT22;10181;48.072;9.884;2024-03-29T06:02:01;1.40;99.90
20041;DHT22;10181;48.072;9.884;2024-03-29T06:04:26;1.30;99.90
20041;DHT22;10181;48.072;9.884;2024-03-29T06:07:02;1.40;99.90
20041;DHT22;10181;48.072;9.884;2024-03-29T06:09:28;1.40;99.90
20041;DHT22;10181;48.072;9.884;2024-03-29T06:11:55;1.40;99.90
20041;DHT22;10181;48.072;9.884;2024-03-29T06:14:24;1.40;99.90
20041;DHT22;10181;48.072;9.884;2024-03-29T06:17:09;1.50;99.90
20041;DHT22;10181;48.072;9.884;2024-03-29T06:19:51;1.60;99.90
20041;DHT22;10181;48.072;9.884;2024-03-29T06:22:17;1.80;99.90
20041;DHT22;10181;48.072;9.884;2024-03-29T06:24:43;2.00;99.90
20041;DHT22;10181;48.072;9.884;2024-03-29T06:27:10;2.10;99.90
20041;DHT22;10181;48.072;9.884;2024-03-29T06:29:35;2.10;99.90
20041;DHT22;10181;48.072;9.884;2024-03-29T06:32:01;2.20;99.90
20041;DHT22;10181;48.072;9.884;2024-03-29T06:34:30;2.40;99.90
20041;DHT22;10181;48.072;9.884;2024-03-29T06:36:56;2.50;99.90
20041;DHT22;10181;48.072;9.884;2024-03-29T06:39:22;2.80;99.90
20041;DHT22;10181;48.072;9.884;2024-03-29T06:41:48;3.00;99.90
20041;DHT22;10181;48.072;9.884;2024-03-29T06:44:13;3.30;99.90
20041;DHT22;10181;48.072;9.884;2024-03-29T06:46:39;3.50;99.90
20041;DHT22;10181;48.072;9.884;2024-03-29T06:49:05;3.70;99.90
20041;DHT22;10181;48.072;9.884;2024-03-29T06:51:31;3.90;99.90
20041;DHT22;10181;48.072;9.884;2024-03-29T06:53:56;4.10;99.90
20041;DHT22;10181;48.072;9.884;2024-03-29T06:56:22;4.30;99.90
20041;DHT22;10181;48.072;9.884;2024-03-29T06:58:47;4.50;99.90
20041;DHT22;10181;48.072;9.884;2024-03-29T07:01:13;4.60;99.90
20041;DHT22;10181;48.072;9.884;2024-03-29T07:03:39;4.80;99.90
20041;DHT22;10181;48.072;9.884;2024-03-29T07:06:05;4.90;99.90
20041;DHT22;10181;48.072;9.884;2024-03-29T07:08:31;5.00;99.90
20041;DHT22;10181;48.072;9.884;2024-03-29T07:11:03;5.20;99.90
20041;DHT22;10181;48.072;9.884;2024-03-29T07:13:30;5.40;99.90
20041;DHT22;10181;48.072;9.884;2024-03-29T07:15:57;5.60;99.90
20041;DHT22;10181;48.072;9.884;2024-03-29T07:18:23;5.90;99.90
20041;DHT22;10181;48.072;9.884;2024-03-29T07:20:49;6.10;99.90
20041;DHT22;10181;48.072;9.884;2024-03-29T07:23:15;6.30;99.90
20041;DHT22;10181;48.072;9.884;2024-03-29T07:25:43;6.50;99.90
20041;DHT22;10181;48.072;9.884;2024-03-29T07:28:09;6.70;99.90
20041;DHT22;10181;48.072;9.884;2024-03-29T07:30:35;6.80;99.90
20041;DHT22;10181;48.072;9.884;2024-03-29T07:33:03;7.10;99.90
20041;DHT22;10181;48.072;9.884;2024-03-29T07:35:29;7.70;99.90
20041;DHT22;10181;48.072;9.884;2024-03-29T07:37:55;8.30;99.90
20041;DHT22;10181;48.072;9.884;2024-03-29T07:40:22;8.90;99.90
20041;DHT22;10181;48.072;9.884;2024-03-29T07:42:48;9.80;99.90
20041;DHT22;10181;48.072;9.884;2024-03-29T07:45:13;10.50;99.90
20041;DHT22;10181;48.072;9.884;2024-03-29T07:47:39;11.00;99.90
20041;DHT22;10181;48.072;9.884;2024-03-29T07:50:05;11.50;98.20
20041;DHT22;10181;48.072;9.884;2024-03-29T07:52:33;11.90;98.70
20041;DHT22;10181;48.072;9.884;2024-03-29T07:54:58;12.10;97.20
20041;DHT22;10181;48.072;9.884;2024-03-29T07:57:25;12.10;96.90
20041;DHT22;10181;48.072;9.884;2024-03-29T07:59:51;12.20;97.30
20041;DHT22;10181;48.072;9.884;2024-03-29T08:02:16;12.30;97.50
20041;DHT22;10181;48.072;9.884;2024-03-29T08:04:42;12.30;96.50
20041;DHT22;10181;48.072;9.884;2024-03-29T08:07:10;12.40;94.30
20041;DHT22;10181;48.072;9.884;2024-03-29T08:09:38;12.40;93.80
20041;DHT22;10181;48.072;9.884;2024-03-29T08:12:05;12.50;95.50
20041;DHT22;10181;48.072;9.884;2024-03-29T08:14:31;12.50;94.50
20041;DHT22;10181;48.072;9.884;2024-03-29T08:16:56;12.60;94.10
20041;DHT22;10181;48.072;9.884;2024-03-29T08:19:27;12.60;94.10
20041;DHT22;10181;48.072;9.884;2024-03-29T08:21:53;12.70;94.60
20041;DHT22;10181;48.072;9.884;2024-03-29T08:24:19;12.80;95.00
20041;DHT22;10181;48.072;9.884;2024-03-29T08:26:44;13.00;93.80
20041;DHT22;10181;48.072;9.884;2024-03-29T08:29:10;13.10;94.50
20041;DHT22;10181;48.072;9.884;2024-03-29T08:31:36;13.30;93.80
20041;DHT22;10181;48.072;9.884;2024-03-29T08:34:02;13.50;94.40
20041;DHT22;10181;48.072;9.884;2024-03-29T08:36:27;13.60;94.90
20041;DHT22;10181;48.072;9.884;2024-03-29T08:38:53;13.70;94.00
20041;DHT22;10181;48.072;9.884;2024-03-29T08:41:18;13.80;95.40
20041;DHT22;10181;48.072;9.884;2024-03-29T08:43:44;13.90;97.20
20041;DHT22;10181;48.072;9.884;2024-03-29T08:46:10;14.00;98.40
20041;DHT22;10181;48.072;9.884;2024-03-29T08:48:35;14.00;98.70
20041;DHT22;10181;48.072;9.884;2024-03-29T08:51:03;14.00;98.10
20041;DHT22;10181;48.072;9.884;2024-03-29T08:53:28;14.00;98.50
20041;DHT22;10181;48.072;9.884;2024-03-29T08:55:54;14.10;99.90
20041;DHT22;10181;48.072;9.884;2024-03-29T08:58:20;14.10;99.90
20041;DHT22;10181;48.072;9.884;2024-03-29T09:00:55;14.20;99.90
20041;DHT22;10181;48.072;9.884;2024-03-29T09:03:22;14.20;99.70
20041;DHT22;10181;48.072;9.884;2024-03-29T09:05:48;14.20;99.90
20041;DHT22;10181;48.072;9.884;2024-03-29T09:08:14;14.10;95.80
20041;DHT22;10181;48.072;9.884;2024-03-29T09:10:40;14.20;99.90
20041;DHT22;10181;48.072;9.884;2024-03-29T09:13:06;14.20;96.50
20041;DHT22;10181;48.072;9.884;2024-03-29T09:15:33;14.10;96.50
20041;DHT22;10181;48.072;9.884;2024-03-29T09:17:58;14.20;96.60
20041;DHT22;10181;48.072;9.884;2024-03-29T09:20:28;14.10;98.60
20041;DHT22;10181;48.072;9.884;2024-03-29T09:22:54;13.80;99.90
20041;DHT22;10181;48.072;9.884;2024-03-29T09:25:19;13.60;99.90
20041;DHT22;10181;48.072;9.884;2024-03-29T09:27:45;13.40;99.90
20041;DHT22;10181;48.072;9.884;2024-03-29T09:30:12;13.30;99.90
20041;DHT22;10181;48.072;9.884;2024-03-29T09:32:38;13.20;99.90
20041;DHT22;10181;48.072;9.884;2024-03-29T09:35:04;13.20;99.90
20041;DHT22;10181;48.072;9.884;2024-03-29T09:37:29;13.40;99.90
20041;DHT22;10181;48.072;9.884;2024-03-29T09:39:55;13.60;99.90
20041;DHT22;10181;48.072;9.884;2024-03-29T09:42:22;13.70;99.90
20041;DHT22;10181;48.072;9.884;2024-03-29T09:44:56;13.90;99.90
20041;DHT22;10181;48.072;9.884;2024-03-29T09:47:28;14.00;99.90
20041;DHT22;10181;48.072;9.884;2024-03-29T09:49:59;14.20;99.90
20041;DHT22;10181;48.072;9.884;2024-03-29T09:52:28;14.40;99.90
20041;DHT22;10181;48.072;9.884;2024-03-29T09:54:54;14.50;99.90
20041;DHT22;10181;48.072;9.884;2024-03-29T09:57:21;14.50;99.90
20041;DHT22;10181;48.072;9.884;2024-03-29T09:59:46;14.60;99.90
20041;DHT22;10181;48.072;9.884;2024-03-29T10:02:16;14.60;99.90
20041;DHT22;10181;48.072;9.884;2024-03-29T10:04:43;14.60;99.90
20041;DHT22;10181;48.072;9.884;2024-03-29T10:07:11;14.60;99.90
20041;DHT22;10181;48.072;9.884;2024-03-29T10:09:38;14.60;99.90
20041;DHT22;10181;48.072;9.884;2024-03-29T10:12:04;14.60;99.90
20041;DHT22;10181;48.072;9.884;2024-03-29T10:14:42;14.50;99.90
20041;DHT22;10181;48.072;9.884;2024-03-29T10:17:08;14.50;99.90
20041;DHT22;10181;48.072;9.884;2024-03-29T10:19:34;14.60;99.90
20041;DHT22;10181;48.072;9.884;2024-03-29T10:22:06;14.60;99.90
20041;DHT22;10181;48.072;9.884;2024-03-29T10:24:33;14.60;99.90
20041;DHT22;10181;48.072;9.884;2024-03-29T10:26:59;14.60;99.90
20041;DHT22;10181;48.072;9.884;2024-03-29T10:29:31;14.50;99.90
20041;DHT22;10181;48.072;9.884;2024-03-29T10:31:57;14.50;99.90
20041;DHT22;10181;48.072;9.884;2024-03-29T10:34:24;14.50;99.90
20041;DHT22;10181;48.072;9.884;2024-03-29T10:36:50;14.60;99.90
20041;DHT22;10181;48.072;9.884;2024-03-29T10:39:16;14.60;99.90
20041;DHT22;10181;48.072;9.884;2024-03-29T10:41:45;14.70;99.90
20041;DHT22;10181;48.072;9.884;2024-03-29T10:44:12;14.90;99.90
20041;DHT22;10181;48.072;9.884;2024-03-29T10:46:38;15.00;99.90
20041;DHT22;10181;48.072;9.884;2024-03-29T10:49:07;15.10;99.90
20041;DHT22;10181;48.072;9.884;2024-03-29T10:51:38;15.20;99.90
20041;DHT22;10181;48.072;9.884;2024-03-29T10:54:05;15.30;99.90
20041;DHT22;10181;48.072;9.884;2024-03-29T10:56:33;15.40;99.90
20041;DHT22;10181;48.072;9.884;2024-03-29T10:59:20;15.40;99.90
20041;DHT22;10181;48.072;9.884;2024-03-29T11:02:00;15.50;99.90
20041;DHT22;10181;48.072;9.884;2024-03-29T11:04:34;15.70;99.90
20041;DHT22;10181;48.072;9.884;2024-03-29T11:07:06;15.70;99.90
20041;DHT22;10181;48.072;9.884;2024-03-29T11:09:33;15.80;99.90
20041;DHT22;10181;48.072;9.884;2024-03-29T11:12:01;15.80;99.90
20041;DHT22;10181;48.072;9.884;2024-03-29T11:14:35;15.80;99.90
20041;DHT22;10181;48.072;9.884;2024-03-29T11:17:03;15.70;99.90
20041;DHT22;10181;48.072;9.884;2024-03-29T11:19:29;15.70;99.90
20041;DHT22;10181;48.072;9.884;2024-03-29T11:21:55;15.70;99.90
20041;DHT22;10181;48.072;9.884;2024-03-29T11:24:22;15.80;99.80
20041;DHT22;10181;48.072;9.884;2024-03-29T11:26:49;16.00;99.90
20041;DHT22;10181;48.072;9.884;2024-03-29T11:29:22;16.20;99.90
20041;DHT22;10181;48.072;9.884;2024-03-29T11:31:55;16.20;98.50
20041;DHT22;10181;48.072;9.884;2024-03-29T11:34:21;16.10;99.90
20041;DHT22;10181;48.072;9.884;2024-03-29T11:36:47;16.20;99.80
20041;DHT22;10181;48.072;9.884;2024-03-29T11:39:23;16.30;98.30
20041;DHT22;10181;48.072;9.884;2024-03-29T11:41:50;16.30;98.20
20041;DHT22;10181;48.072;9.884;2024-03-29T11:44:16;16.30;98.20
20041;DHT22;10181;48.072;9.884;2024-03-29T11:46:43;16.30;97.50
20041;DHT22;10181;48.072;9.884;2024-03-29T11:49:09;16.40;98.20
20041;DHT22;10181;48.072;9.884;2024-03-29T11:51:35;16.40;97.70
20041;DHT22;10181;48.072;9.884;2024-03-29T11:54:01;16.40;98.20
20041;DHT22;10181;48.072;9.884;2024-03-29T11:56:27;16.40;98.10
20041;DHT22;10181;48.072;9.884;2024-03-29T11:58:52;16.40;99.50
20041;DHT22;10181;48.072;9.884;2024-03-29T12:01:19;16.40;99.40
20041;DHT22;10181;48.072;9.884;2024-03-29T12:03:44;16.40;99.90
20041;DHT22;10181;48.072;9.884;2024-03-29T12:06:11;16.40;99.90
20041;DHT22;10181;48.072;9.884;2024-03-29T12:08:39;16.40;99.80
20041;DHT22;10181;48.072;9.884;2024-03-29T12:11:05;16.50;99.90
20041;DHT22;10181;48.072;9.884;2024-03-29T12:13:31;16.60;99.50
20041;DHT22;10181;48.072;9.884;2024-03-29T12:15:57;16.80;99.80
20041;DHT22;10181;48.072;9.884;2024-03-29T12:18:24;16.90;99.80
20041;DHT22;10181;48.072;9.884;2024-03-29T12:20:51;17.10;99.90
20041;DHT22;10181;48.072;9.884;2024-03-29T12:23:18;17.30;99.90
20041;DHT22;10181;48.072;9.884;2024-03-29T12:25:45;17.40;99.60
20041;DHT22;10181;48.072;9.884;2024-03-29T12:28:11;17.60;99.90
20041;DHT22;10181;48.072;9.884;2024-03-29T12:30:40;17.60;99.10
20041;DHT22;10181;48.072;9.884;2024-03-29T12:33:17;17.60;99.90
20041;DHT22;10181;48.072;9.884;2024-03-29T12:35:51;17.80;99.20
20041;DHT22;10181;48.072;9.884;2024-03-29T12:38:21;17.80;98.70
20041;DHT22;10181;48.072;9.884;2024-03-29T12:40:49;18.10;99.70
20041;DHT22;10181;48.072;9.884;2024-03-29T12:43:19;18.60;98.30
20041;DHT22;10181;48.072;9.884;2024-03-29T12:45:45;19.20;97.90
20041;DHT22;10181;48.072;9.884;2024-03-29T12:48:18;19.60;98.90
20041;DHT22;10181;48.072;9.884;2024-03-29T12:50:46;19.90;98.70
20041;DHT22;10181;48.072;9.884;2024-03-29T12:53:13;20.30;99.80
20041;DHT22;10181;48.072;9.884;2024-03-29T12:55:46;20.60;99.90
20041;DHT22;10181;48.072;9.884;2024-03-29T12:58:17;21.00;97.80
20041;DHT22;10181;48.072;9.884;2024-03-29T13:00:44;21.20;99.10
20041;DHT22;10181;48.072;9.884;2024-03-29T13:03:09;21.40;97.70
20041;DHT22;10181;48.072;9.884;2024-03-29T13:05:36;21.20;96.10
20041;DHT22;10181;48.072;9.884;2024-03-29T13:08:10;21.00;95.00
20041;DHT22;10181;48.072;9.884;2024-03-29T13:10:37;20.80;87.20
20041;DHT22;10181;48.072;9.884;2024-03-29T13:13:02;20.90;79.10
20041;DHT22;10181;48.072;9.884;2024-03-29T13:15:28;20.90;78.40
20041;DHT22;10181;48.072;9.884;2024-03-29T13:17:55;21.10;80.10
20041;DHT22;10181;48.072;9.884;2024-03-29T13:20:22;21.10;78.10
20041;DHT22;10181;48.072;9.884;2024-03-29T13:22:49;21.00;78.40
20041;DHT22;10181;48.072;9.884;2024-03-29T13:25:21;20.90;75.70
20041;DHT22;10181;48.072;9.884;2024-03-29T13:27:52;20.90;74.90
20041;DHT22;10181;48.072;9.884;2024-03-29T13:30:22;21.10;73.50
20041;DHT22;10181;48.072;9.884;2024-03-29T13:32:47;21.20;73.70
20041;DHT22;10181;48.072;9.884;2024-03-29T13:35:14;21.20;71.40
20041;DHT22;10181;48.072;9.884;2024-03-29T13:37:42;21.10;73.20
20041;DHT22;10181;48.072;9.884;2024-03-29T13:40:11;21.00;73.00
20041;DHT22;10181;48.072;9.884;2024-03-29T13:42:37;20.90;73.60
20041;DHT22;10181;48.072;9.884;2024-03-29T13:45:04;20.90;75.00
20041;DHT22;10181;48.072;9.884;2024-03-29T13:47:37;20.90;72.30
20041;DHT22;10181;48.072;9.884;2024-03-29T13:50:03;21.10;72.10
20041;DHT22;10181;48.072;9.884;2024-03-29T13:52:29;21.40;69.00
20041;DHT22;10181;48.072;9.884;2024-03-29T13:54:55;21.30;68.30
20041;DHT22;10181;48.072;9.884;2024-03-29T13:57:21;21.20;68.30
20041;DHT22;10181;48.072;9.884;2024-03-29T13:59:46;21.20;72.20
20041;DHT22;10181;48.072;9.884;2024-03-29T14:02:14;21.00;68.80
20041;DHT22;10181;48.072;9.884;2024-03-29T14:04:43;20.70;68.40
20041;DHT22;10181;48.072;9.884;2024-03-29T14:07:10;20.60;71.00
20041;DHT22;10181;48.072;9.884;2024-03-29T14:09:42;20.40;72.50
20041;DHT22;10181;48.072;9.884;2024-03-29T14:12:08;20.20;70.40
20041;DHT22;10181;48.072;9.884;2024-03-29T14:14:38;20.20;71.60
20041;DHT22;10181;48.072;9.884;2024-03-29T14:17:04;20.20;73.00
20041;DHT22;10181;48.072;9.884;2024-03-29T14:19:32;20.20;70.00
20041;DHT22;10181;48.072;9.884;2024-03-29T14:21:59;20.20;72.90
20041;DHT22;10181;48.072;9.884;2024-03-29T14:24:25;20.10;72.10
20041;DHT22;10181;48.072;9.884;2024-03-29T14:26:52;20.10;72.80
20041;DHT22;10181;48.072;9.884;2024-03-29T14:29:18;20.10;70.40
20041;DHT22;10181;48.072;9.884;2024-03-29T14:31:47;20.20;72.40
20041;DHT22;10181;48.072;9.884;2024-03-29T14:34:13;20.10;72.60
20041;DHT22;10181;48.072;9.884;2024-03-29T14:36:38;20.10;72.50
20041;DHT22;10181;48.072;9.884;2024-03-29T14:39:04;20.30;73.90
20041;DHT22;10181;48.072;9.884;2024-03-29T14:41:30;20.30;73.20
20041;DHT22;10181;48.072;9.884;2024-03-29T14:43:56;20.20;71.80
20041;DHT22;10181;48.072;9.884;2024-03-29T14:46:22;20.10;70.00
20041;DHT22;10181;48.072;9.884;2024-03-29T14:48:48;20.10;70.70
20041;DHT22;10181;48.072;9.884;2024-03-29T14:51:15;20.00;71.20
20041;DHT22;10181;48.072;9.884;2024-03-29T14:53:41;19.90;71.30
20041;DHT22;10181;48.072;9.884;2024-03-29T14:56:13;19.90;73.60
20041;DHT22;10181;48.072;9.884;2024-03-29T14:58:39;19.80;74.10
20041;DHT22;10181;48.072;9.884;2024-03-29T15:01:05;19.70;73.30
20041;DHT22;10181;48.072;9.884;2024-03-29T15:03:31;19.50;73.60
20041;DHT22;10181;48.072;9.884;2024-03-29T15:05:56;19.40;71.40
20041;DHT22;10181;48.072;9.884;2024-03-29T15:08:22;19.30;70.20
20041;DHT22;10181;48.072;9.884;2024-03-29T15:10:56;19.20;70.80
20041;DHT22;10181;48.072;9.884;2024-03-29T15:13:22;19.20;70.60
20041;DHT22;10181;48.072;9.884;2024-03-29T15:16:06;19.00;72.90
20041;DHT22;10181;48.072;9.884;2024-03-29T15:18:32;18.90;69.50
20041;DHT22;10181;48.072;9.884;2024-03-29T15:21:00;18.80;68.90
20041;DHT22;10181;48.072;9.884;2024-03-29T15:23:27;18.80;69.60
20041;DHT22;10181;48.072;9.884;2024-03-29T15:25:55;18.70;71.60
20041;DHT22;10181;48.072;9.884;2024-03-29T15:28:22;18.60;71.40
20041;DHT22;10181;48.072;9.884;2024-03-29T15:31:13;18.60;71.20
20041;DHT22;10181;48.072;9.884;2024-03-29T15:33:39;18.40;71.60
20041;DHT22;10181;48.072;9.884;2024-03-29T15:36:05;18.40;68.90